sensor_id;sensor_type;location;lat;lon;timestamp;temperature;humidity
62904;DHT22;49000;50.698;13.322;2023-12-20T00:01:39;3.80;1.00
62904;DHT22;49000;50.698;13.322;2023-12-20T00:04:05;4.10;1.00
62904;DHT22;49000;50.698;13.322;2023-12-20T00:06:31;3.90;1.00
62904;DHT22;49000;50.698;13.322;2023-12-20T00:08:56;3.80;1.00
62904;DHT22;49000;50.698;13.322;2023-12-20T00:11:23;3.90;1.00
62904;DHT22;49000;50.698;13.322;2023-12-20T00:13:49;3.90;1.00
62904;DHT22;49000;50.698;13.322;2023-12-20T00:16:14;4.20;1.00
62904;DHT22;49000;50.698;13.322;2023-12-20T00:18:40;4.00;1.00
62904;DHT22;49000;50.698;13.322;2023-12-20T00:21:05;3.90;1.00
62904;DHT22;49000;50.698;13.322;2023-12-20T00:23:31;3.90;1.00
62904;DHT22;49000;50.698;13.322;2023-12-20T00:25:56;3.60;1.00
62904;DHT22;49000;50.698;13.322;2023-12-20T00:28:22;4.10;1.00
62904;DHT22;49000;50.698;13.322;2023-12-20T00:30:47;4.00;1.00
62904;DHT22;49000;50.698;13.322;2023-12-20T00:33:13;4.10;1.00
62904;DHT22;49000;50.698;13.322;2023-12-20T00:35:38;3.70;1.00
62904;DHT22;49000;50.698;13.322;2023-12-20T00:38:04;3.40;1.00
62904;DHT22;49000;50.698;13.322;2023-12-20T00:40:30;3.90;1.00
62904;DHT22;49000;50.698;13.322;2023-12-20T00:42:56;3.70;1.00
62904;DHT22;49000;50.698;13.322;2023-12-20T00:45:21;3.80;1.00
62904;DHT22;49000;50.698;13.322;2023-12-20T00:47:46;3.90;1.00
62904;DHT22;49000;50.698;13.322;2023-12-20T00:50:12;4.00;1.00
62904;DHT22;49000;50.698;13.322;2023-12-20T00:52:37;3.70;1.00
62904;DHT22;49000;50.698;13.322;2023-12-20T00:55:04;3.80;1.00
62904;DHT22;49000;50.698;13.322;2023-12-20T00:57:29;3.60;1.00
62904;DHT22;49000;50.698;13.322;2023-12-20T00:59:56;3.90;1.00
62904;DHT22;49000;50.698;13.322;2023-12-20T01:02:21;3.60;1.00
62904;DHT22;49000;50.698;13.322;2023-12-20T01:04:47;3.70;1.00
62904;DHT22;49000;50.698;13.322;2023-12-20T01:07:12;3.20;1.00
62904;DHT22;49000;50.698;13.322;2023-12-20T01:09:38;3.80;1.00
62904;DHT22;49000;50.698;13.322;2023-12-20T01:12:03;3.20;1.00
62904;DHT22;49000;50.698;13.322;2023-12-20T01:14:29;3.80;1.00
62904;DHT22;49000;50.698;13.322;2023-12-20T01:16:54;3.50;1.00
62904;DHT22;49000;50.698;13.322;2023-12-20T01:19:20;3.50;1.00
62904;DHT22;49000;50.698;13.322;2023-12-20T01:21:45;3.70;1.00
62904;DHT22;49000;50.698;13.322;2023-12-20T01:24:11;3.50;1.00
62904;DHT22;49000;50.698;13.322;2023-12-20T01:26:36;3.50;1.00
62904;DHT22;49000;50.698;13.322;2023-12-20T01:29:02;3.70;1.00
62904;DHT22;49000;50.698;13.322;2023-12-20T01:31:27;3.20;1.00
62904;DHT22;49000;50.698;13.322;2023-12-20T01:33:53;3.40;1.00
62904;DHT22;49000;50.698;13.322;2023-12-20T01:36:18;3.20;1.00
62904;DHT22;49000;50.698;13.322;2023-12-20T01:38:45;3.40;1.00
62904;DHT22;49000;50.698;13.322;2023-12-20T01:41:10;3.70;1.00
62904;DHT22;49000;50.698;13.322;2023-12-20T01:43:35;3.30;1.00
62904;DHT22;49000;50.698;13.322;2023-12-20T01:46:01;3.40;1.00
62904;DHT22;49000;50.698;13.322;2023-12-20T01:48:28;3.00;1.00
62904;DHT22;49000;50.698;13.322;2023-12-20T01:50:54;2.90;1.00
62904;DHT22;49000;50.698;13.322;2023-12-20T01:53:22;3.20;1.00
62904;DHT22;49000;50.698;13.322;2023-12-20T01:55:50;3.10;1.00
62904;DHT22;49000;50.698;13.322;2023-12-20T01:58:17;3.10;1.00
62904;DHT22;49000;50.698;13.322;2023-12-20T02:00:44;3.50;1.00
62904;DHT22;49000;50.698;13.322;2023-12-20T02:03:09;2.80;1.00
62904;DHT22;49000;50.698;13.322;2023-12-20T02:05:36;3.40;1.00
62904;DHT22;49000;50.698;13.322;2023-12-20T02:08:02;2.90;1.00
62904;DHT22;49000;50.698;13.322;2023-12-20T02:10:28;3.30;1.00
62904;DHT22;49000;50.698;13.322;2023-12-20T02:12:54;3.20;1.00
62904;DHT22;49000;50.698;13.322;2023-12-20T02:15:19;3.30;1.00
62904;DHT22;49000;50.698;13.322;2023-12-20T02:17:46;3.00;1.00
62904;DHT22;49000;50.698;13.322;2023-12-20T02:20:11;3.00;1.00
62904;DHT22;49000;50.698;13.322;2023-12-20T02:22:37;3.10;1.00
62904;DHT22;49000;50.698;13.322;2023-12-20T02:25:03;3.10;1.00
62904;DHT22;49000;50.698;13.322;2023-12-20T02:27:29;3.10;1.00
62904;DHT22;49000;50.698;13.322;2023-12-20T02:29:54;3.00;1.00
62904;DHT22;49000;50.698;13.322;2023-12-20T02:32:21;2.90;1.00
62904;DHT22;49000;50.698;13.322;2023-12-20T02:34:48;3.20;1.00
62904;DHT22;49000;50.698;13.322;2023-12-20T02:37:14;3.20;1.00
62904;DHT22;49000;50.698;13.322;2023-12-20T02:39:40;2.70;1.00
62904;DHT22;49000;50.698;13.322;2023-12-20T02:42:05;3.20;1.00
62904;DHT22;49000;50.698;13.322;2023-12-20T02:44:31;3.30;1.00
62904;DHT22;49000;50.698;13.322;2023-12-20T02:46:56;3.20;1.00
62904;DHT22;49000;50.698;13.322;2023-12-20T02:49:22;3.10;1.00
62904;DHT22;49000;50.698;13.322;2023-12-20T02:51:47;3.30;1.00
62904;DHT22;49000;50.698;13.322;2023-12-20T02:54:13;3.10;1.00
62904;DHT22;49000;50.698;13.322;2023-12-20T02:56:38;3.20;1.00
62904;DHT22;49000;50.698;13.322;2023-12-20T02:59:04;3.10;1.00
62904;DHT22;49000;50.698;13.322;2023-12-20T03:01:31;3.20;1.00
62904;DHT22;49000;50.698;13.322;2023-12-20T03:03:56;2.90;1.00
62904;DHT22;49000;50.698;13.322;2023-12-20T03:06:22;3.00;1.00
62904;DHT22;49000;50.698;13.322;2023-12-20T03:08:47;3.00;1.00
62904;DHT22;49000;50.698;13.322;2023-12-20T03:11:13;2.90;1.00
62904;DHT22;49000;50.698;13.322;2023-12-20T03:13:38;3.10;1.00
62904;DHT22;49000;50.698;13.322;2023-12-20T03:16:13;2.60;1.00
62904;DHT22;49000;50.698;13.322;2023-12-20T03:18:40;2.80;1.00
62904;DHT22;49000;50.698;13.322;2023-12-20T03:21:05;2.90;1.00
62904;DHT22;49000;50.698;13.322;2023-12-20T03:23:31;3.00;1.00
62904;DHT22;49000;50.698;13.322;2023-12-20T03:25:59;3.00;1.00
62904;DHT22;49000;50.698;13.322;2023-12-20T03:28:25;2.90;1.00
62904;DHT22;49000;50.698;13.322;2023-12-20T03:30:51;2.80;1.00
62904;DHT22;49000;50.698;13.322;2023-12-20T03:33:16;2.80;1.00
62904;DHT22;49000;50.698;13.322;2023-12-20T03:35:42;2.30;1.00
62904;DHT22;49000;50.698;13.322;2023-12-20T03:38:07;2.80;1.00
62904;DHT22;49000;50.698;13.322;2023-12-20T03:40:33;3.00;1.00
62904;DHT22;49000;50.698;13.322;2023-12-20T03:42:59;3.00;1.00
62904;DHT22;49000;50.698;13.322;2023-12-20T03:45:24;2.80;1.00
62904;DHT22;49000;50.698;13.322;2023-12-20T03:47:50;2.50;1.00
62904;DHT22;49000;50.698;13.322;2023-12-20T03:50:21;2.30;1.00
62904;DHT22;49000;50.698;13.322;2023-12-20T03:52:47;2.30;1.00
62904;DHT22;49000;50.698;13.322;2023-12-20T03:55:12;2.60;1.00
62904;DHT22;49000;50.698;13.322;2023-12-20T03:57:38;2.60;1.00
62904;DHT22;49000;50.698;13.322;2023-12-20T04:00:04;2.80;1.00
62904;DHT22;49000;50.698;13.322;2023-12-20T04:02:30;2.80;1.00
62904;DHT22;49000;50.698;13.322;2023-12-20T04:04:56;2.70;1.00
62904;DHT22;49000;50.698;13.322;2023-12-20T04:07:21;2.60;1.00
62904;DHT22;49000;50.698;13.322;2023-12-20T04:09:47;2.80;1.00
62904;DHT22;49000;50.698;13.322;2023-12-20T04:12:13;2.60;1.00
62904;DHT22;49000;50.698;13.322;2023-12-20T04:14:38;2.70;1.00
62904;DHT22;49000;50.698;13.322;2023-12-20T04:17:05;2.80;1.00
62904;DHT22;49000;50.698;13.322;2023-12-20T04:19:30;2.70;1.00
62904;DHT22;49000;50.698;13.322;2023-12-20T04:21:56;2.50;1.00
62904;DHT22;49000;50.698;13.322;2023-12-20T04:24:21;2.60;1.00
62904;DHT22;49000;50.698;13.322;2023-12-20T04:26:47;2.50;1.00
62904;DHT22;49000;50.698;13.322;2023-12-20T04:29:13;2.70;1.00
62904;DHT22;49000;50.698;13.322;2023-12-20T04:31:38;2.70;1.00
62904;DHT22;49000;50.698;13.322;2023-12-20T04:34:04;2.40;1.00
62904;DHT22;49000;50.698;13.322;2023-12-20T04:36:29;2.70;1.00
62904;DHT22;49000;50.698;13.322;2023-12-20T04:38:55;2.60;1.00
62904;DHT22;49000;50.698;13.322;2023-12-20T04:41:20;2.80;1.00
62904;DHT22;49000;50.698;13.322;2023-12-20T04:43:46;3.00;1.00
62904;DHT22;49000;50.698;13.322;2023-12-20T04:46:11;3.00;1.00
62904;DHT22;49000;50.698;13.322;2023-12-20T04:48:37;2.90;1.00
62904;DHT22;49000;50.698;13.322;2023-12-20T04:51:03;2.60;1.00
62904;DHT22;49000;50.698;13.322;2023-12-20T04:53:28;2.80;1.00
62904;DHT22;49000;50.698;13.322;2023-12-20T04:55:54;2.70;1.00
62904;DHT22;49000;50.698;13.322;2023-12-20T04:58:19;2.80;1.00
62904;DHT22;49000;50.698;13.322;2023-12-20T05:00:45;2.60;1.00
62904;DHT22;49000;50.698;13.322;2023-12-20T05:03:10;2.20;1.00
62904;DHT22;49000;50.698;13.322;2023-12-20T05:05:36;2.80;1.00
62904;DHT22;49000;50.698;13.322;2023-12-20T05:08:01;2.70;1.00
62904;DHT22;49000;50.698;13.322;2023-12-20T05:10:27;2.50;1.00
62904;DHT22;49000;50.698;13.322;2023-12-20T05:12:53;2.50;1.00
62904;DHT22;49000;50.698;13.322;2023-12-20T05:15:18;2.20;1.00
62904;DHT22;49000;50.698;13.322;2023-12-20T05:17:44;2.50;1.00
62904;DHT22;49000;50.698;13.322;2023-12-20T05:20:09;2.20;1.00
62904;DHT22;49000;50.698;13.322;2023-12-20T05:22:35;2.70;1.00
62904;DHT22;49000;50.698;13.322;2023-12-20T05:25:01;2.60;1.00
62904;DHT22;49000;50.698;13.322;2023-12-20T05:27:27;2.60;1.00
62904;DHT22;49000;50.698;13.322;2023-12-20T05:29:52;2.50;1.00
62904;DHT22;49000;50.698;13.322;2023-12-20T05:32:18;2.50;1.00
62904;DHT22;49000;50.698;13.322;2023-12-20T05:34:43;2.40;1.00
62904;DHT22;49000;50.698;13.322;2023-12-20T05:37:08;2.30;1.00
62904;DHT22;49000;50.698;13.322;2023-12-20T05:39:34;2.50;1.00
62904;DHT22;49000;50.698;13.322;2023-12-20T05:41:59;2.70;1.00
62904;DHT22;49000;50.698;13.322;2023-12-20T05:44:25;2.50;1.00
62904;DHT22;49000;50.698;13.322;2023-12-20T05:46:50;2.60;1.00
62904;DHT22;49000;50.698;13.322;2023-12-20T05:49:16;2.40;1.00
62904;DHT22;49000;50.698;13.322;2023-12-20T05:51:41;2.50;1.00
62904;DHT22;49000;50.698;13.322;2023-12-20T05:54:08;2.30;1.00
62904;DHT22;49000;50.698;13.322;2023-12-20T05:56:34;2.40;1.00
62904;DHT22;49000;50.698;13.322;2023-12-20T05:58:59;2.40;1.00
62904;DHT22;49000;50.698;13.322;2023-12-20T06:01:25;2.60;1.00
62904;DHT22;49000;50.698;13.322;2023-12-20T06:03:50;2.60;1.00
62904;DHT22;49000;50.698;13.322;2023-12-20T06:06:15;2.60;1.00
62904;DHT22;49000;50.698;13.322;2023-12-20T06:08:43;2.10;1.00
62904;DHT22;49000;50.698;13.322;2023-12-20T06:11:08;2.40;7.40
62904;DHT22;49000;50.698;13.322;2023-12-20T06:13:34;2.60;1.00
62904;DHT22;49000;50.698;13.322;2023-12-20T06:16:00;2.40;19.30
62904;DHT22;49000;50.698;13.322;2023-12-20T06:18:26;2.40;2.40
62904;DHT22;49000;50.698;13.322;2023-12-20T06:20:51;1.90;1.00
62904;DHT22;49000;50.698;13.322;2023-12-20T06:23:17;2.40;9.70
62904;DHT22;49000;50.698;13.322;2023-12-20T06:25:42;2.40;14.00
62904;DHT22;49000;50.698;13.322;2023-12-20T06:28:08;2.40;1.00
62904;DHT22;49000;50.698;13.322;2023-12-20T06:30:35;2.20;1.00
62904;DHT22;49000;50.698;13.322;2023-12-20T06:33:01;2.10;1.00
62904;DHT22;49000;50.698;13.322;2023-12-20T06:35:26;2.20;30.00
62904;DHT22;49000;50.698;13.322;2023-12-20T06:37:52;2.50;30.30
62904;DHT22;49000;50.698;13.322;2023-12-20T06:40:17;2.30;39.90
62904;DHT22;49000;50.698;13.322;2023-12-20T06:42:44;2.50;95.90
62904;DHT22;49000;50.698;13.322;2023-12-20T06:45:10;2.40;93.90
62904;DHT22;49000;50.698;13.322;2023-12-20T06:47:35;2.30;99.90
62904;DHT22;49000;50.698;13.322;2023-12-20T06:50:01;2.40;90.60
62904;DHT22;49000;50.698;13.322;2023-12-20T06:52:26;2.30;99.90
62904;DHT22;49000;50.698;13.322;2023-12-20T06:54:52;2.40;99.90
62904;DHT22;49000;50.698;13.322;2023-12-20T06:57:17;2.10;99.90
62904;DHT22;49000;50.698;13.322;2023-12-20T06:59:45;2.10;99.90
62904;DHT22;49000;50.698;13.322;2023-12-20T07:02:10;2.50;99.90
62904;DHT22;49000;50.698;13.322;2023-12-20T07:04:40;2.60;99.90
62904;DHT22;49000;50.698;13.322;2023-12-20T07:07:05;2.30;99.90
62904;DHT22;49000;50.698;13.322;2023-12-20T07:09:32;2.20;99.90
62904;DHT22;49000;50.698;13.322;2023-12-20T07:11:58;2.70;99.90
62904;DHT22;49000;50.698;13.322;2023-12-20T07:14:23;2.60;99.90
62904;DHT22;49000;50.698;13.322;2023-12-20T07:16:49;2.70;99.90
62904;DHT22;49000;50.698;13.322;2023-12-20T07:19:14;2.90;99.90
62904;DHT22;49000;50.698;13.322;2023-12-20T07:21:40;2.80;99.90
62904;DHT22;49000;50.698;13.322;2023-12-20T07:24:05;3.00;99.90
62904;DHT22;49000;50.698;13.322;2023-12-20T07:26:31;2.90;99.90
62904;DHT22;49000;50.698;13.322;2023-12-20T07:28:56;2.60;99.90
62904;DHT22;49000;50.698;13.322;2023-12-20T07:31:24;2.90;99.90
62904;DHT22;49000;50.698;13.322;2023-12-20T07:33:49;3.00;99.90
62904;DHT22;49000;50.698;13.322;2023-12-20T07:36:14;3.00;99.90
62904;DHT22;49000;50.698;13.322;2023-12-20T07:38:40;3.00;99.90
62904;DHT22;49000;50.698;13.322;2023-12-20T07:41:09;3.10;99.90
62904;DHT22;49000;50.698;13.322;2023-12-20T07:43:35;2.90;99.90
62904;DHT22;49000;50.698;13.322;2023-12-20T07:46:07;3.20;99.90
62904;DHT22;49000;50.698;13.322;2023-12-20T07:48:34;3.20;99.90
62904;DHT22;49000;50.698;13.322;2023-12-20T07:51:00;2.80;99.90
62904;DHT22;49000;50.698;13.322;2023-12-20T07:53:25;3.00;99.90
62904;DHT22;49000;50.698;13.322;2023-12-20T07:55:51;3.10;99.90
62904;DHT22;49000;50.698;13.322;2023-12-20T07:58:17;2.60;99.90
62904;DHT22;49000;50.698;13.322;2023-12-20T08:00:43;3.30;99.90
62904;DHT22;49000;50.698;13.322;2023-12-20T08:03:09;3.10;99.90
62904;DHT22;49000;50.698;13.322;2023-12-20T08:05:35;3.30;99.90
62904;DHT22;49000;50.698;13.322;2023-12-20T08:08:00;3.10;99.90
62904;DHT22;49000;50.698;13.322;2023-12-20T08:10:26;3.20;99.90
62904;DHT22;49000;50.698;13.322;2023-12-20T08:12:52;3.20;99.90
62904;DHT22;49000;50.698;13.322;2023-12-20T08:15:17;3.40;99.90
62904;DHT22;49000;50.698;13.322;2023-12-20T08:17:43;2.90;99.90
62904;DHT22;49000;50.698;13.322;2023-12-20T08:20:09;3.10;99.90
62904;DHT22;49000;50.698;13.322;2023-12-20T08:22:34;3.50;98.20
62904;DHT22;49000;50.698;13.322;2023-12-20T08:25:00;3.40;59.70
62904;DHT22;49000;50.698;13.322;2023-12-20T08:27:25;3.00;45.30
62904;DHT22;49000;50.698;13.322;2023-12-20T08:29:51;3.50;44.70
62904;DHT22;49000;50.698;13.322;2023-12-20T08:32:16;2.80;46.60
62904;DHT22;49000;50.698;13.322;2023-12-20T08:34:42;3.10;31.90
62904;DHT22;49000;50.698;13.322;2023-12-20T08:37:07;3.30;2.70
62904;DHT22;49000;50.698;13.322;2023-12-20T08:39:33;3.30;9.80
62904;DHT22;49000;50.698;13.322;2023-12-20T08:41:59;3.50;4.10
62904;DHT22;49000;50.698;13.322;2023-12-20T08:44:24;3.20;1.00
62904;DHT22;49000;50.698;13.322;2023-12-20T08:46:50;3.70;1.00
62904;DHT22;49000;50.698;13.322;2023-12-20T08:49:15;3.40;1.00
62904;DHT22;49000;50.698;13.322;2023-12-20T08:51:41;3.50;1.00
62904;DHT22;49000;50.698;13.322;2023-12-20T08:54:08;3.40;1.00
62904;DHT22;49000;50.698;13.322;2023-12-20T08:56:34;3.40;1.00
62904;DHT22;49000;50.698;13.322;2023-12-20T08:58:59;3.50;1.00
62904;DHT22;49000;50.698;13.322;2023-12-20T09:01:25;3.40;1.00
62904;DHT22;49000;50.698;13.322;2023-12-20T09:03:50;3.40;1.00
62904;DHT22;49000;50.698;13.322;2023-12-20T09:06:16;3.20;1.00
62904;DHT22;49000;50.698;13.322;2023-12-20T09:08:41;2.80;17.30
62904;DHT22;49000;50.698;13.322;2023-12-20T09:11:07;3.30;1.00
62904;DHT22;49000;50.698;13.322;2023-12-20T09:13:32;3.20;5.90
62904;DHT22;49000;50.698;13.322;2023-12-20T09:15:58;2.80;1.00
62904;DHT22;49000;50.698;13.322;2023-12-20T09:18:24;2.90;1.00
62904;DHT22;49000;50.698;13.322;2023-12-20T09:20:49;3.40;1.00
62904;DHT22;49000;50.698;13.322;2023-12-20T09:23:15;2.90;1.00
62904;DHT22;49000;50.698;13.322;2023-12-20T09:25:40;3.10;1.00
62904;DHT22;49000;50.698;13.322;2023-12-20T09:28:06;3.00;1.00
62904;DHT22;49000;50.698;13.322;2023-12-20T09:30:31;3.20;1.00
62904;DHT22;49000;50.698;13.322;2023-12-20T09:32:57;3.40;1.00
62904;DHT22;49000;50.698;13.322;2023-12-20T09:35:23;3.50;1.00
62904;DHT22;49000;50.698;13.322;2023-12-20T09:37:49;3.10;1.00
62904;DHT22;49000;50.698;13.322;2023-12-20T09:40:18;3.40;1.00
62904;DHT22;49000;50.698;13.322;2023-12-20T09:45:20;3.30;1.00
62904;DHT22;49000;50.698;13.322;2023-12-20T09:47:48;2.90;1.00
62904;DHT22;49000;50.698;13.322;2023-12-20T09:50:14;3.20;1.00
62904;DHT22;49000;50.698;13.322;2023-12-20T09:52:40;4.00;1.00
62904;DHT22;49000;50.698;13.322;2023-12-20T09:55:07;3.20;1.00
62904;DHT22;49000;50.698;13.322;2023-12-20T09:57:33;3.80;1.00
62904;DHT22;49000;50.698;13.322;2023-12-20T09:59:59;3.70;1.00
62904;DHT22;49000;50.698;13.322;2023-12-20T10:02:25;3.50;1.00
62904;DHT22;49000;50.698;13.322;2023-12-20T10:04:54;3.80;1.00
62904;DHT22;49000;50.698;13.322;2023-12-20T10:07:19;3.70;1.00
62904;DHT22;49000;50.698;13.322;2023-12-20T10:09:46;3.80;99.90
62904;DHT22;49000;50.698;13.322;2023-12-20T10:12:12;3.80;99.90
62904;DHT22;49000;50.698;13.322;2023-12-20T10:14:39;3.30;99.90
62904;DHT22;49000;50.698;13.322;2023-12-20T10:17:05;3.70;99.90
62904;DHT22;49000;50.698;13.322;2023-12-20T10:19:31;3.70;99.90
62904;DHT22;49000;50.698;13.322;2023-12-20T10:21:59;4.00;99.90
62904;DHT22;49000;50.698;13.322;2023-12-20T10:24:24;3.90;99.90
62904;DHT22;49000;50.698;13.322;2023-12-20T10:27:04;4.30;99.90
62904;DHT22;49000;50.698;13.322;2023-12-20T10:29:36;4.10;99.90
62904;DHT22;49000;50.698;13.322;2023-12-20T10:32:24;4.10;99.90
62904;DHT22;49000;50.698;13.322;2023-12-20T10:34:51;4.10;99.90
62904;DHT22;49000;50.698;13.322;2023-12-20T10:37:17;4.00;99.90
62904;DHT22;49000;50.698;13.322;2023-12-20T10:39:43;4.00;99.90
62904;DHT22;49000;50.698;13.322;2023-12-20T10:42:11;4.10;99.90
62904;DHT22;49000;50.698;13.322;2023-12-20T10:44:37;4.10;99.90
62904;DHT22;49000;50.698;13.322;2023-12-20T10:47:03;4.20;99.90
62904;DHT22;49000;50.698;13.322;2023-12-20T10:49:31;3.80;99.90
62904;DHT22;49000;50.698;13.322;2023-12-20T10:51:59;3.60;99.90
62904;DHT22;49000;50.698;13.322;2023-12-20T10:54:27;4.20;99.90
62904;DHT22;49000;50.698;13.322;2023-12-20T10:56:53;4.10;99.90
62904;DHT22;49000;50.698;13.322;2023-12-20T10:59:20;4.40;99.90
62904;DHT22;49000;50.698;13.322;2023-12-20T11:01:47;4.00;99.90
62904;DHT22;49000;50.698;13.322;2023-12-20T11:04:18;4.80;99.90
62904;DHT22;49000;50.698;13.322;2023-12-20T11:06:47;4.40;99.90
62904;DHT22;49000;50.698;13.322;2023-12-20T11:09:24;4.70;99.90
62904;DHT22;49000;50.698;13.322;2023-12-20T11:12:09;4.60;99.30
62904;DHT22;49000;50.698;13.322;2023-12-20T11:14:51;4.70;99.90
62904;DHT22;49000;50.698;13.322;2023-12-20T11:17:17;4.30;99.90
62904;DHT22;49000;50.698;13.322;2023-12-20T11:20:04;4.70;99.90
62904;DHT22;49000;50.698;13.322;2023-12-20T11:22:31;4.40;99.90
62904;DHT22;49000;50.698;13.322;2023-12-20T11:25:14;4.00;99.90
62904;DHT22;49000;50.698;13.322;2023-12-20T11:27:41;4.40;99.90
62904;DHT22;49000;50.698;13.322;2023-12-20T11:30:08;4.40;99.90
62904;DHT22;49000;50.698;13.322;2023-12-20T11:32:35;4.30;99.90
62904;DHT22;49000;50.698;13.322;2023-12-20T11:35:18;4.20;99.90
62904;DHT22;49000;50.698;13.322;2023-12-20T11:37:45;4.30;99.90
62904;DHT22;49000;50.698;13.322;2023-12-20T11:40:17;4.30;99.90
62904;DHT22;49000;50.698;13.322;2023-12-20T11:42:48;4.30;99.90
62904;DHT22;49000;50.698;13.322;2023-12-20T11:45:19;4.10;99.90
62904;DHT22;49000;50.698;13.322;2023-12-20T11:47:48;4.30;99.90
62904;DHT22;49000;50.698;13.322;2023-12-20T11:50:15;4.50;99.90
62904;DHT22;49000;50.698;13.322;2023-12-20T11:52:41;4.30;99.90
62904;DHT22;49000;50.698;13.322;2023-12-20T11:55:06;3.80;98.60
62904;DHT22;49000;50.698;13.322;2023-12-20T11:57:33;3.80;96.10
62904;DHT22;49000;50.698;13.322;2023-12-20T11:59:58;4.00;81.50
62904;DHT22;49000;50.698;13.322;2023-12-20T12:02:24;4.20;93.20
62904;DHT22;49000;50.698;13.322;2023-12-20T12:04:50;4.60;92.70
62904;DHT22;49000;50.698;13.322;2023-12-20T12:07:18;4.70;99.90
62904;DHT22;49000;50.698;13.322;2023-12-20T12:09:44;4.10;99.90
62904;DHT22;49000;50.698;13.322;2023-12-20T12:12:11;4.20;35.30
62904;DHT22;49000;50.698;13.322;2023-12-20T12:14:37;4.40;62.30
62904;DHT22;49000;50.698;13.322;2023-12-20T12:17:04;4.60;93.60
62904;DHT22;49000;50.698;13.322;2023-12-20T12:19:29;4.80;48.10
62904;DHT22;49000;50.698;13.322;2023-12-20T12:22:06;5.10;87.50
62904;DHT22;49000;50.698;13.322;2023-12-20T12:24:33;4.80;90.90
62904;DHT22;49000;50.698;13.322;2023-12-20T12:26:59;5.10;32.10
62904;DHT22;49000;50.698;13.322;2023-12-20T12:29:24;5.20;1.00
62904;DHT22;49000;50.698;13.322;2023-12-20T12:31:50;5.20;35.60
62904;DHT22;49000;50.698;13.322;2023-12-20T12:34:17;4.70;26.20
62904;DHT22;49000;50.698;13.322;2023-12-20T12:36:43;4.80;65.00
62904;DHT22;49000;50.698;13.322;2023-12-20T12:39:09;5.00;26.00
62904;DHT22;49000;50.698;13.322;2023-12-20T12:41:35;5.50;43.00
62904;DHT22;49000;50.698;13.322;2023-12-20T12:44:00;5.00;64.60
62904;DHT22;49000;50.698;13.322;2023-12-20T12:46:26;5.00;68.20
62904;DHT22;49000;50.698;13.322;2023-12-20T12:48:51;5.10;68.20
62904;DHT22;49000;50.698;13.322;2023-12-20T12:51:16;5.10;10.80
62904;DHT22;49000;50.698;13.322;2023-12-20T12:53:42;5.00;1.00
62904;DHT22;49000;50.698;13.322;2023-12-20T12:56:08;4.90;10.40
62904;DHT22;49000;50.698;13.322;2023-12-20T12:58:33;4.80;1.00
62904;DHT22;49000;50.698;13.322;2023-12-20T13:00:59;4.40;1.00
62904;DHT22;49000;50.698;13.322;2023-12-20T13:03:24;4.70;1.00
62904;DHT22;49000;50.698;13.322;2023-12-20T13:05:50;4.50;1.00
62904;DHT22;49000;50.698;13.322;2023-12-20T13:08:16;4.60;1.00
62904;DHT22;49000;50.698;13.322;2023-12-20T13:10:41;4.50;63.60
62904;DHT22;49000;50.698;13.322;2023-12-20T13:13:07;4.50;90.30
62904;DHT22;49000;50.698;13.322;2023-12-20T13:15:32;4.20;73.00
62904;DHT22;49000;50.698;13.322;2023-12-20T13:17:58;4.50;99.90
62904;DHT22;49000;50.698;13.322;2023-12-20T13:20:23;4.40;99.90
62904;DHT22;49000;50.698;13.322;2023-12-20T13:22:49;4.50;71.40
62904;DHT22;49000;50.698;13.322;2023-12-20T13:25:14;3.90;99.90
62904;DHT22;49000;50.698;13.322;2023-12-20T13:27:41;4.20;23.50
62904;DHT22;49000;50.698;13.322;2023-12-20T13:30:06;4.60;68.10
62904;DHT22;49000;50.698;13.322;2023-12-20T13:32:32;4.60;60.80
62904;DHT22;49000;50.698;13.322;2023-12-20T13:34:58;5.00;18.40
62904;DHT22;49000;50.698;13.322;2023-12-20T13:37:23;4.80;2.60
62904;DHT22;49000;50.698;13.322;2023-12-20T13:39:49;4.20;27.40
62904;DHT22;49000;50.698;13.322;2023-12-20T13:42:14;4.50;42.20
62904;DHT22;49000;50.698;13.322;2023-12-20T13:44:40;4.30;45.90
62904;DHT22;49000;50.698;13.322;2023-12-20T13:47:05;4.60;6.70
62904;DHT22;49000;50.698;13.322;2023-12-20T13:49:31;4.50;25.00
62904;DHT22;49000;50.698;13.322;2023-12-20T13:51:57;4.50;19.80
62904;DHT22;49000;50.698;13.322;2023-12-20T13:54:23;4.40;25.20
62904;DHT22;49000;50.698;13.322;2023-12-20T13:56:48;4.30;17.60
62904;DHT22;49000;50.698;13.322;2023-12-20T13:59:14;4.60;27.60
62904;DHT22;49000;50.698;13.322;2023-12-20T14:01:40;4.10;44.70
62904;DHT22;49000;50.698;13.322;2023-12-20T14:04:06;4.50;43.70
62904;DHT22;49000;50.698;13.322;2023-12-20T14:06:32;4.40;23.80
62904;DHT22;49000;50.698;13.322;2023-12-20T14:08:58;4.60;25.10
62904;DHT22;49000;50.698;13.322;2023-12-20T14:11:25;4.60;4.60
62904;DHT22;49000;50.698;13.322;2023-12-20T14:13:51;4.60;53.90
62904;DHT22;49000;50.698;13.322;2023-12-20T14:16:16;4.40;76.30
62904;DHT22;49000;50.698;13.322;2023-12-20T14:18:42;4.40;99.90
62904;DHT22;49000;50.698;13.322;2023-12-20T14:21:07;4.30;99.90
62904;DHT22;49000;50.698;13.322;2023-12-20T14:23:33;4.60;29.70
62904;DHT22;49000;50.698;13.322;2023-12-20T14:26:01;4.40;99.90
62904;DHT22;49000;50.698;13.322;2023-12-20T14:28:27;3.80;90.50
62904;DHT22;49000;50.698;13.322;2023-12-20T14:30:53;3.80;96.60
62904;DHT22;49000;50.698;13.322;2023-12-20T14:33:18;4.00;88.50
62904;DHT22;49000;50.698;13.322;2023-12-20T14:35:46;4.10;63.80
62904;DHT22;49000;50.698;13.322;2023-12-20T14:38:12;4.20;50.30
62904;DHT22;49000;50.698;13.322;2023-12-20T14:40:41;4.20;41.90
62904;DHT22;49000;50.698;13.322;2023-12-20T14:43:06;4.00;6.90
62904;DHT22;49000;50.698;13.322;2023-12-20T14:45:32;3.60;18.50
62904;DHT22;49000;50.698;13.322;2023-12-20T14:47:57;3.80;14.70
62904;DHT22;49000;50.698;13.322;2023-12-20T14:50:24;4.10;5.10
62904;DHT22;49000;50.698;13.322;2023-12-20T14:52:49;4.10;1.00
62904;DHT22;49000;50.698;13.322;2023-12-20T14:55:15;4.00;93.10
62904;DHT22;49000;50.698;13.322;2023-12-20T14:57:42;3.90;1.00
62904;DHT22;49000;50.698;13.322;2023-12-20T15:00:07;3.90;1.00
62904;DHT22;49000;50.698;13.322;2023-12-20T15:02:33;3.80;1.00
62904;DHT22;49000;50.698;13.322;2023-12-20T15:04:58;3.60;1.00
62904;DHT22;49000;50.698;13.322;2023-12-20T15:07:24;3.70;1.00
62904;DHT22;49000;50.698;13.322;2023-12-20T15:09:49;3.70;1.00
62904;DHT22;49000;50.698;13.322;2023-12-20T15:12:15;3.40;4.00
62904;DHT22;49000;50.698;13.322;2023-12-20T15:14:41;3.60;1.00
62904;DHT22;49000;50.698;13.322;2023-12-20T15:17:06;3.90;8.90
62904;DHT22;49000;50.698;13.322;2023-12-20T15:19:32;3.90;4.10
62904;DHT22;49000;50.698;13.322;2023-12-20T15:21:57;3.50;5.60
62904;DHT22;49000;50.698;13.322;2023-12-20T15:24:25;3.80;30.70
62904;DHT22;49000;50.698;13.322;2023-12-20T15:27:02;3.70;42.10
62904;DHT22;49000;50.698;13.322;2023-12-20T15:29:28;3.70;8.10
62904;DHT22;49000;50.698;13.322;2023-12-20T15:31:53;3.60;25.70
62904;DHT22;49000;50.698;13.322;2023-12-20T15:34:19;3.20;60.40
62904;DHT22;49000;50.698;13.322;2023-12-20T15:36:45;3.70;12.50